createdAt,value
2022-11-24T00:00:32.938Z,-1.28
2022-11-24T00:01:33.021Z,-1.52
2022-11-24T00:02:33.283Z,-1.12
2022-11-24T00:03:33.391Z,-1.52
2022-11-24T00:04:33.643Z,-1.12
2022-11-24T00:05:33.644Z,-1.44
2022-11-24T00:06:33.791Z,-1.2
2022-11-24T00:07:33.942Z,-1.44
2022-11-24T00:08:34.053Z,-1.28
2022-11-24T00:09:34.155Z,-1.44
2022-11-24T00:10:34.293Z,-1.44
2022-11-24T00:11:34.457Z,-1.28
2022-11-24T00:12:34.602Z,-1.28
2022-11-24T00:13:34.738Z,-1.52
2022-11-24T00:14:35.057Z,-1.28
2022-11-24T00:15:34.950Z,-1.52
2022-11-24T00:16:35.134Z,-1.52
2022-11-24T00:17:35.260Z,-1.68
2022-11-24T00:18:35.365Z,-1.52
2022-11-24T00:19:35.512Z,-1.28
2022-11-24T00:20:35.663Z,-1.84
2022-11-24T00:21:35.812Z,-1.92
2022-11-24T00:22:35.964Z,-2
2022-11-24T00:23:36.114Z,-2
2022-11-24T00:24:36.364Z,-1.44
2022-11-24T00:25:36.392Z,-1.12
2022-11-24T00:26:36.531Z,-1.12
2022-11-24T00:27:36.678Z,-1.28
2022-11-24T00:28:36.851Z,-0.88
2022-11-24T00:29:36.989Z,-0.88
2022-11-24T00:30:37.146Z,-0.8
2022-11-24T00:31:37.292Z,-0.48
2022-11-24T00:32:37.386Z,-0.32
2022-11-24T00:33:37.529Z,0
2022-11-24T00:34:37.688Z,0.24
2022-11-24T00:35:37.834Z,0.24
2022-11-24T00:36:37.985Z,0.4
2022-11-24T00:37:38.139Z,0.48
2022-11-24T00:38:38.282Z,0.4
2022-11-24T00:39:38.436Z,0.48
2022-11-24T00:40:38.595Z,0.64
2022-11-24T00:41:38.747Z,0.64
2022-11-24T00:42:38.895Z,0.64
2022-11-24T00:43:39.055Z,0.8
2022-11-24T00:44:39.203Z,0.88
2022-11-24T00:45:39.504Z,1.04
2022-11-24T00:46:39.535Z,0.88
2022-11-24T00:47:39.599Z,0.8
2022-11-24T00:48:39.758Z,1.04
2022-11-24T00:49:39.898Z,0.8
2022-11-24T00:50:40.061Z,0.64
2022-11-24T00:51:40.208Z,0.4
2022-11-24T00:52:40.355Z,0.48
2022-11-24T00:53:40.514Z,0.72
2022-11-24T00:54:40.655Z,0.8
2022-11-24T00:55:40.810Z,1.12
2022-11-24T00:56:40.940Z,1.44
2022-11-24T00:57:41.123Z,1.44
2022-11-24T00:58:41.275Z,1.44
2022-11-24T00:59:41.423Z,1.28
2022-11-24T01:00:41.557Z,1.12
2022-11-24T01:01:41.824Z,1.04
2022-11-24T01:02:41.912Z,0.8
2022-11-24T01:03:42.030Z,1.2
2022-11-24T01:04:42.178Z,1.2
2022-11-24T01:05:42.323Z,1.2
2022-11-24T01:06:42.433Z,1.44
2022-11-24T01:07:42.651Z,1.44
2022-11-24T01:08:42.689Z,1.44
2022-11-24T01:09:42.829Z,1.52
2022-11-24T01:10:43.006Z,1.2
2022-11-24T01:11:43.133Z,1.28
2022-11-24T01:12:43.293Z,1.52
2022-11-24T01:13:43.403Z,1.44
2022-11-24T01:14:43.546Z,1.52
2022-11-24T01:15:43.700Z,1.6
2022-11-24T01:16:43.833Z,1.84
2022-11-24T01:17:43.953Z,1.52
2022-11-24T01:18:44.116Z,1.44
2022-11-24T01:19:44.253Z,1.68
2022-11-24T01:20:44.400Z,1.6
2022-11-24T01:21:44.551Z,1.68
2022-11-24T01:22:44.699Z,1.68
2022-11-24T01:23:44.804Z,1.6
2022-11-24T01:24:44.954Z,1.52
2022-11-24T01:25:45.112Z,1.68
2022-11-24T01:26:45.255Z,1.52
2022-11-24T01:27:45.407Z,1.04
2022-11-24T01:28:47.284Z,0.88
2022-11-24T01:29:45.709Z,1.04
2022-11-24T01:30:45.882Z,1.44
2022-11-24T01:31:45.954Z,1.68
2022-11-24T01:32:46.116Z,1.6
2022-11-24T01:33:46.270Z,1.44
2022-11-24T01:34:46.437Z,1.04
2022-11-24T01:35:46.577Z,1.12
2022-11-24T01:36:46.719Z,1.12
2022-11-24T01:37:46.872Z,1.04
2022-11-24T01:38:47.023Z,1.04
2022-11-24T01:39:47.180Z,1.44
2022-11-24T01:40:47.283Z,1.6
2022-11-24T01:41:47.427Z,1.52
2022-11-24T01:42:47.580Z,1.52
2022-11-24T01:43:47.735Z,1.6
2022-11-24T01:44:47.887Z,1.6
2022-11-24T01:45:48.096Z,1.84
2022-11-24T01:46:48.140Z,1.84
2022-11-24T01:47:48.296Z,1.84
2022-11-24T01:48:48.440Z,1.84
2022-11-24T01:49:48.591Z,1.68
2022-11-24T01:50:48.745Z,2
2022-11-24T01:51:48.879Z,2
2022-11-24T01:52:49.035Z,1.68
2022-11-24T01:53:49.150Z,1.52
2022-11-24T01:54:49.299Z,1.52
2022-11-24T01:55:49.447Z,1.52
2022-11-24T01:56:49.615Z,1.68
2022-11-24T01:57:49.748Z,1.52
2022-11-24T01:58:49.906Z,1.28
2022-11-24T01:59:50.057Z,1.6
2022-11-24T02:00:50.193Z,1.52
2022-11-24T02:01:50.412Z,1.44
2022-11-24T02:02:50.515Z,1.68
2022-11-24T02:03:50.620Z,1.84
2022-11-24T02:04:50.768Z,1.68
2022-11-24T02:05:50.923Z,1.6
2022-11-24T02:06:51.016Z,1.6
2022-11-24T02:07:51.231Z,1.68
2022-11-24T02:08:51.286Z,2
2022-11-24T02:09:51.419Z,2.08
2022-11-24T02:10:51.592Z,2.08
2022-11-24T02:11:51.786Z,2.32
2022-11-24T02:12:51.872Z,2.32
2022-11-24T02:13:52.027Z,2.24
2022-11-24T02:14:52.221Z,2.08
2022-11-24T02:15:52.390Z,2.24
2022-11-24T02:16:52.526Z,2.24
2022-11-24T02:17:52.676Z,2.08
2022-11-24T02:18:52.787Z,2.08
2022-11-24T02:19:52.879Z,2
2022-11-24T02:20:53.045Z,1.84
2022-11-24T02:21:53.192Z,1.84
2022-11-24T02:22:53.332Z,1.92
2022-11-24T02:23:53.494Z,1.68
2022-11-24T02:24:53.646Z,1.84
2022-11-24T02:25:53.806Z,1.28
2022-11-24T02:26:53.940Z,1.68
2022-11-24T02:27:54.372Z,2.32
2022-11-24T02:28:54.199Z,2
2022-11-24T02:29:54.353Z,1.6
2022-11-24T02:30:54.519Z,1.84
2022-11-24T02:31:54.535Z,1.68
2022-11-24T02:32:54.640Z,1.84
2022-11-24T02:33:54.757Z,1.68
2022-11-24T02:34:54.905Z,2
2022-11-24T02:35:55.056Z,1.6
2022-11-24T02:36:55.213Z,1.84
2022-11-24T02:37:55.360Z,2.08
2022-11-24T02:38:55.513Z,2.08
2022-11-24T02:39:55.663Z,2
2022-11-24T02:40:55.765Z,2.08
2022-11-24T02:41:55.866Z,2
2022-11-24T02:42:56.026Z,1.92
2022-11-24T02:43:56.175Z,1.68
2022-11-24T02:44:56.324Z,2.08
2022-11-24T02:45:56.489Z,2.08
2022-11-24T02:46:56.619Z,2.24
2022-11-24T02:47:56.778Z,2.32
2022-11-24T02:48:56.933Z,2.08
2022-11-24T02:49:57.082Z,1.92
2022-11-24T02:50:57.238Z,1.84
2022-11-24T02:51:57.381Z,2
2022-11-24T02:52:57.544Z,2.4
2022-11-24T02:53:57.689Z,2.64
2022-11-24T02:54:57.843Z,2.32
2022-11-24T02:55:57.997Z,2.4
2022-11-24T02:56:58.137Z,2.32
2022-11-24T02:57:58.328Z,2.4
2022-11-24T02:58:58.500Z,2.48
2022-11-24T02:59:58.646Z,2.4
2022-11-24T03:00:58.783Z,2.32
2022-11-24T03:01:58.988Z,2.32
2022-11-24T03:02:59.126Z,2.24
2022-11-24T03:03:59.252Z,2.24
2022-11-24T03:04:59.405Z,2.32
2022-11-24T03:05:59.551Z,2.32
2022-11-24T03:06:59.699Z,2.64
2022-11-24T03:07:59.858Z,2.48
2022-11-24T03:09:00.002Z,2.4
2022-11-24T03:10:00.158Z,2.4
2022-11-24T03:11:00.309Z,2.08
2022-11-24T03:12:00.456Z,2.08
2022-11-24T03:13:00.617Z,2.32
2022-11-24T03:14:00.769Z,2.4
2022-11-24T03:15:00.931Z,2.32
2022-11-24T03:16:01.113Z,2.48
2022-11-24T03:17:01.217Z,2.48
2022-11-24T03:18:01.367Z,2.4
2022-11-24T03:19:01.523Z,2.24
2022-11-24T03:20:04.492Z,2.4
2022-11-24T03:21:01.841Z,2.72
2022-11-24T03:22:01.974Z,2.64
2022-11-24T03:23:02.130Z,2.72
2022-11-24T03:24:02.235Z,2.72
2022-11-24T03:25:02.377Z,2.48
2022-11-24T03:26:02.535Z,2.48
2022-11-24T03:27:02.640Z,2.72
2022-11-24T03:28:02.790Z,2.72
2022-11-24T03:29:02.976Z,2.72
2022-11-24T03:30:03.095Z,2.64
2022-11-24T03:31:03.242Z,2.72
2022-11-24T03:32:03.342Z,2.64
2022-11-24T03:33:03.494Z,2.64
2022-11-24T03:34:03.649Z,2.88
2022-11-24T03:35:03.799Z,2.8
2022-11-24T03:36:03.938Z,2.8
2022-11-24T03:37:04.051Z,3.04
2022-11-24T03:38:04.199Z,3.12
2022-11-24T03:39:04.349Z,3.04
2022-11-24T03:40:04.492Z,3.04
2022-11-24T03:41:04.611Z,2.8
2022-11-24T03:42:04.752Z,3.04
2022-11-24T03:43:04.913Z,3.04
2022-11-24T03:44:05.060Z,3.04
2022-11-24T03:45:23.045Z,3.28
2022-11-24T03:46:05.339Z,3.12
2022-11-24T03:47:05.450Z,3.28
2022-11-24T03:48:05.555Z,3.2
2022-11-24T03:49:05.705Z,3.28
2022-11-24T03:50:05.821Z,3.2
2022-11-24T03:51:05.967Z,3.2
2022-11-24T03:52:08.126Z,3.28
2022-11-24T03:53:06.218Z,3.52
2022-11-24T03:54:06.320Z,3.28
2022-11-24T03:55:06.475Z,3.2
2022-11-24T03:56:06.630Z,3.28
2022-11-24T03:57:06.774Z,3.44
2022-11-24T03:58:06.969Z,3.44
2022-11-24T03:59:07.074Z,3.2
2022-11-24T04:00:07.236Z,3.52
2022-11-24T04:01:07.389Z,3.6
2022-11-24T04:02:07.565Z,3.44
2022-11-24T04:03:07.739Z,3.52
2022-11-24T04:04:07.877Z,3.6
2022-11-24T04:05:08.006Z,3.84
2022-11-24T04:06:08.450Z,3.52
2022-11-24T04:07:08.406Z,3.44
2022-11-24T04:08:08.543Z,3.68
2022-11-24T04:09:08.690Z,3.52
2022-11-24T04:10:08.850Z,3.52
2022-11-24T04:11:08.993Z,3.6
2022-11-24T04:12:09.141Z,3.68
2022-11-24T04:13:09.302Z,3.68
2022-11-24T04:14:13.502Z,3.68
2022-11-24T04:15:09.612Z,3.6
2022-11-24T04:16:09.774Z,3.6
2022-11-24T04:17:10.300Z,3.92
2022-11-24T04:18:10.001Z,3.92
2022-11-24T04:19:10.111Z,3.68
2022-11-24T04:20:10.268Z,3.92
2022-11-24T04:21:10.409Z,3.68
2022-11-24T04:22:10.510Z,3.68
2022-11-24T04:23:10.667Z,3.6
2022-11-24T04:24:10.812Z,3.6
2022-11-24T04:25:10.968Z,3.68
2022-11-24T04:26:11.118Z,3.6
2022-11-24T04:27:11.272Z,3.68
2022-11-24T04:28:11.418Z,3.68
2022-11-24T04:29:11.573Z,3.84
2022-11-24T04:30:11.744Z,3.84
2022-11-24T04:31:11.904Z,3.92
2022-11-24T04:32:12.017Z,3.92
2022-11-24T04:33:12.187Z,3.92
2022-11-24T04:34:12.328Z,4
2022-11-24T04:35:12.494Z,3.92
2022-11-24T04:36:12.637Z,3.84
2022-11-24T04:37:12.748Z,3.6
2022-11-24T04:38:12.895Z,3.84
2022-11-24T04:39:20.403Z,3.84
2022-11-24T04:40:13.139Z,3.84
2022-11-24T04:41:13.314Z,3.92
2022-11-24T04:42:13.426Z,3.68
2022-11-24T04:43:13.599Z,3.68
2022-11-24T04:44:13.737Z,4
2022-11-24T04:45:13.940Z,3.92
2022-11-24T04:46:14.070Z,4
2022-11-24T04:47:14.141Z,4
2022-11-24T04:48:14.303Z,4
2022-11-24T04:49:14.454Z,3.92
2022-11-24T04:50:14.590Z,3.68
2022-11-24T04:51:14.740Z,3.68
2022-11-24T04:52:14.853Z,3.68
2022-11-24T04:53:14.994Z,3.68
2022-11-24T04:54:15.142Z,3.68
2022-11-24T04:55:15.298Z,3.84
2022-11-24T04:56:15.444Z,3.68
2022-11-24T04:57:15.602Z,3.68
2022-11-24T04:58:15.708Z,3.68
2022-11-24T04:59:15.801Z,3.84
2022-11-24T05:00:15.908Z,3.6
2022-11-24T05:01:16.104Z,3.92
2022-11-24T05:02:16.156Z,3.84
2022-11-24T05:03:16.311Z,3.68
2022-11-24T05:04:16.517Z,3.84
2022-11-24T05:05:16.613Z,3.68
2022-11-24T05:06:16.713Z,3.92
2022-11-24T05:07:18.965Z,3.68
2022-11-24T05:08:17.016Z,4
2022-11-24T05:09:17.154Z,3.92
2022-11-24T05:10:17.310Z,3.84
2022-11-24T05:11:17.430Z,3.92
2022-11-24T05:12:17.517Z,3.92
2022-11-24T05:13:17.669Z,3.92
2022-11-24T05:14:17.772Z,3.92
2022-11-24T05:15:17.919Z,3.84
2022-11-24T05:16:18.140Z,3.92
2022-11-24T05:17:18.225Z,3.92
2022-11-24T05:18:18.331Z,3.84
2022-11-24T05:19:18.486Z,3.84
2022-11-24T05:20:18.579Z,3.92
2022-11-24T05:21:18.747Z,3.68
2022-11-24T05:22:18.891Z,3.68
2022-11-24T05:23:19.052Z,3.84
2022-11-24T05:24:19.197Z,3.84
2022-11-24T05:25:19.367Z,3.92
2022-11-24T05:26:19.443Z,3.92
2022-11-24T05:27:19.602Z,3.84
2022-11-24T05:28:19.759Z,4
2022-11-24T05:29:19.907Z,3.92
2022-11-24T05:30:20.059Z,4
2022-11-24T05:31:20.264Z,3.84
2022-11-24T05:32:20.363Z,3.84
2022-11-24T05:33:20.515Z,3.92
2022-11-24T05:34:20.612Z,3.92
2022-11-24T05:35:20.763Z,3.84
2022-11-24T05:36:20.909Z,3.84
2022-11-24T05:37:21.077Z,3.92
2022-11-24T05:38:21.213Z,3.92
2022-11-24T05:39:21.359Z,3.92
2022-11-24T05:40:21.478Z,3.84
2022-11-24T05:41:21.561Z,4
2022-11-24T05:42:21.724Z,4.08
2022-11-24T05:43:21.832Z,4.16
2022-11-24T05:44:22.013Z,4.08
2022-11-24T05:45:22.127Z,4
2022-11-24T05:46:22.298Z,3.92
2022-11-24T05:47:22.443Z,4
2022-11-24T05:48:22.529Z,4
2022-11-24T05:49:22.636Z,4
2022-11-24T05:50:22.786Z,4.08
2022-11-24T05:51:22.929Z,4
2022-11-24T05:52:23.098Z,4.08
2022-11-24T05:53:23.240Z,3.92
2022-11-24T05:54:23.390Z,4
2022-11-24T05:55:23.502Z,4
2022-11-24T05:56:23.649Z,4.08
2022-11-24T05:57:23.796Z,4
2022-11-24T05:58:23.950Z,4
2022-11-24T05:59:24.105Z,3.92
2022-11-24T06:00:24.244Z,4
2022-11-24T06:01:24.390Z,3.92
2022-11-24T06:02:24.652Z,3.84
2022-11-24T06:03:24.705Z,3.92
2022-11-24T06:04:24.859Z,4.08
2022-11-24T06:05:24.962Z,4.08
2022-11-24T06:06:25.102Z,4
2022-11-24T06:07:25.309Z,4.08
2022-11-24T06:08:29.612Z,4
2022-11-24T06:09:25.559Z,4.08
2022-11-24T06:10:25.716Z,4
2022-11-24T06:11:25.816Z,4
2022-11-24T06:12:25.985Z,4
2022-11-24T06:13:26.180Z,4.08
2022-11-24T06:14:26.223Z,4
2022-11-24T06:15:26.382Z,4
2022-11-24T06:16:26.607Z,4
2022-11-24T06:17:26.669Z,3.92
2022-11-24T06:18:26.825Z,4
2022-11-24T06:19:26.982Z,4
2022-11-24T06:20:31.305Z,3.92
2022-11-24T06:21:27.285Z,4
2022-11-24T06:22:27.434Z,4.08
2022-11-24T06:23:27.577Z,4.08
2022-11-24T06:24:27.690Z,4.16
2022-11-24T06:25:27.834Z,4.08
2022-11-24T06:26:27.933Z,4.08
2022-11-24T06:27:28.089Z,4
2022-11-24T06:28:28.234Z,4.08
2022-11-24T06:29:28.393Z,4
2022-11-24T06:30:28.497Z,4.08
2022-11-24T06:31:28.610Z,4
2022-11-24T06:32:28.750Z,4.08
2022-11-24T06:33:28.904Z,4
2022-11-24T06:34:29.047Z,4.08
2022-11-24T06:35:29.154Z,4
2022-11-24T06:36:29.299Z,4.08
2022-11-24T06:37:29.463Z,4
2022-11-24T06:38:29.603Z,4.08
2022-11-24T06:39:29.758Z,4.16
2022-11-24T06:40:29.917Z,4.08
2022-11-24T06:41:30.052Z,4.16
2022-11-24T06:42:30.206Z,4.16
2022-11-24T06:43:30.366Z,4.16
2022-11-24T06:44:30.486Z,4.08
2022-11-24T06:45:30.646Z,4.4
2022-11-24T06:46:30.752Z,4.32
2022-11-24T06:47:30.916Z,4.32
2022-11-24T06:48:31.065Z,4.4
2022-11-24T06:49:31.226Z,4.4
2022-11-24T06:50:33.660Z,4.4
2022-11-24T06:51:31.469Z,4.32
2022-11-24T06:52:31.627Z,4.32
2022-11-24T06:53:31.779Z,4.48
2022-11-24T06:54:32.147Z,4.48
2022-11-24T06:55:32.084Z,4.32
2022-11-24T06:56:32.228Z,4.16
2022-11-24T06:57:32.388Z,4.4
2022-11-24T06:58:32.495Z,4.32
2022-11-24T06:59:32.586Z,4.4
2022-11-24T07:00:32.734Z,4.4
2022-11-24T07:01:32.897Z,4.4
2022-11-24T07:02:33.000Z,4.4
2022-11-24T07:03:33.164Z,4.4
2022-11-24T07:04:33.484Z,4.4
2022-11-24T07:05:33.398Z,4.4
2022-11-24T07:06:33.550Z,4.4
2022-11-24T07:07:33.759Z,4.32
2022-11-24T07:08:33.849Z,4.32
2022-11-24T07:09:34.001Z,4.48
2022-11-24T07:10:34.149Z,4.48
2022-11-24T07:11:34.306Z,4.48
2022-11-24T07:12:34.465Z,4.48
2022-11-24T07:13:34.610Z,4.48
2022-11-24T07:14:35.120Z,4.48
2022-11-24T07:15:34.905Z,4.64
2022-11-24T07:16:35.076Z,4.48
2022-11-24T07:17:35.161Z,4.4
2022-11-24T07:18:35.314Z,4.48
2022-11-24T07:19:35.475Z,4.4
2022-11-24T07:20:35.618Z,4.48
2022-11-24T07:21:35.775Z,4.48
2022-11-24T07:22:35.957Z,4.4
2022-11-24T07:23:35.984Z,4.4
2022-11-24T07:24:36.354Z,4.64
2022-11-24T07:25:36.271Z,4.64
2022-11-24T07:26:36.427Z,4.64
2022-11-24T07:27:36.576Z,4.8
2022-11-24T07:28:36.738Z,4.64
2022-11-24T07:29:36.877Z,4.64
2022-11-24T07:30:36.971Z,4.72
2022-11-24T07:31:37.115Z,4.64
2022-11-24T07:32:37.192Z,4.64
2022-11-24T07:33:37.334Z,4.64
2022-11-24T07:34:37.644Z,4.88
2022-11-24T07:35:37.639Z,4.88
2022-11-24T07:36:37.812Z,4.72
2022-11-24T07:37:37.946Z,4.8
2022-11-24T07:38:38.095Z,4.8
2022-11-24T07:39:38.257Z,4.8
2022-11-24T07:40:38.402Z,4.72
2022-11-24T07:41:38.548Z,4.88
2022-11-24T07:42:38.666Z,4.8
2022-11-24T07:43:38.808Z,4.88
2022-11-24T07:44:38.963Z,4.72
2022-11-24T07:45:39.126Z,4.8
2022-11-24T07:46:39.213Z,4.88
2022-11-24T07:47:39.348Z,4.8
2022-11-24T07:48:39.515Z,4.8
2022-11-24T07:49:39.658Z,4.72
2022-11-24T07:50:39.774Z,4.88
2022-11-24T07:51:39.897Z,4.88
2022-11-24T07:52:40.100Z,5.12
2022-11-24T07:53:40.215Z,5.04
2022-11-24T07:54:40.363Z,5.12
2022-11-24T07:55:40.529Z,5.04
2022-11-24T07:56:40.670Z,4.88
2022-11-24T07:57:40.817Z,4.88
2022-11-24T07:58:40.970Z,4.8
2022-11-24T07:59:41.080Z,5.2
2022-11-24T08:00:41.207Z,4.8
2022-11-24T08:01:41.388Z,4.88
2022-11-24T08:02:41.486Z,4.88
2022-11-24T08:03:41.674Z,4.8
2022-11-24T08:04:41.738Z,4.8
2022-11-24T08:06:00.956Z,5.04
2022-11-24T08:06:45.998Z,5.04
2022-11-24T08:07:42.189Z,5.12
2022-11-24T08:08:42.331Z,5.12
2022-11-24T08:09:42.492Z,5.12
2022-11-24T08:10:42.634Z,5.12
2022-11-24T08:11:42.789Z,5.2
2022-11-24T08:12:43.940Z,5.12
2022-11-24T08:13:43.099Z,5.12
2022-11-24T08:14:43.197Z,5.04
2022-11-24T08:15:43.335Z,5.12
2022-11-24T08:16:43.525Z,5.44
2022-11-24T08:17:43.582Z,5.28
2022-11-24T08:18:43.704Z,5.52
2022-11-24T08:19:43.862Z,5.52
2022-11-24T08:20:43.966Z,5.52
2022-11-24T08:21:44.106Z,5.52
2022-11-24T08:22:44.265Z,5.52
2022-11-24T08:23:44.365Z,5.44
2022-11-24T08:24:44.490Z,5.44
2022-11-24T08:25:44.666Z,5.52
2022-11-24T08:26:44.764Z,5.84
2022-11-24T08:27:44.914Z,5.6
2022-11-24T08:28:45.060Z,5.52
2022-11-24T08:29:45.171Z,5.68
2022-11-24T08:30:45.299Z,5.6
2022-11-24T08:31:45.440Z,5.6
2022-11-24T08:32:45.569Z,5.68
2022-11-24T08:33:45.715Z,5.92
2022-11-24T08:34:45.857Z,6
2022-11-24T08:35:46.658Z,5.92
2022-11-24T08:36:46.124Z,5.84
2022-11-24T08:37:46.218Z,6
2022-11-24T08:38:46.384Z,5.84
2022-11-24T08:39:46.533Z,6.24
2022-11-24T08:40:46.637Z,6.24
2022-11-24T08:41:46.791Z,6.32
2022-11-24T08:42:46.900Z,6.08
2022-11-24T08:43:47.017Z,6.08
2022-11-24T08:44:47.138Z,6.4
2022-11-24T08:45:47.337Z,6.4
2022-11-24T08:46:47.376Z,6.4
2022-11-24T08:47:47.477Z,6.64
2022-11-24T08:48:47.651Z,6.72
2022-11-24T08:49:47.744Z,6.4
2022-11-24T08:50:47.902Z,6.4
2022-11-24T08:51:48.007Z,6.32
2022-11-24T08:52:48.098Z,6.24
2022-11-24T08:53:48.200Z,6.24
2022-11-24T08:54:48.357Z,6.24
2022-11-24T08:55:48.512Z,6.32
2022-11-24T08:56:48.660Z,6.32
2022-11-24T08:57:48.816Z,6.4
2022-11-24T08:58:49.064Z,6.48
2022-11-24T08:59:49.110Z,6.64
2022-11-24T09:00:49.243Z,6.48
2022-11-24T09:01:49.539Z,6.48
2022-11-24T09:02:49.544Z,6.32
2022-11-24T09:03:50.906Z,6.32
2022-11-24T09:04:49.826Z,6.4
2022-11-24T09:05:52.430Z,6.4
2022-11-24T09:06:50.072Z,6.4
2022-11-24T09:07:50.271Z,6.64
2022-11-24T09:08:50.376Z,6.72
2022-11-24T09:09:50.474Z,6.48
2022-11-24T09:10:50.620Z,6.4
2022-11-24T09:11:50.730Z,6.48
2022-11-24T09:12:50.875Z,6.48
2022-11-24T09:13:51.039Z,6.64
2022-11-24T09:14:51.224Z,6.4
2022-11-24T09:15:51.372Z,6.4
2022-11-24T09:16:51.547Z,6.4
2022-11-24T09:17:51.712Z,6.32
2022-11-24T09:18:51.836Z,6.4
2022-11-24T09:19:52.008Z,6.4
2022-11-24T09:20:52.092Z,6.4
2022-11-24T09:21:52.238Z,6.72
2022-11-24T09:22:52.390Z,6.64
2022-11-24T09:23:52.547Z,6.64
2022-11-24T09:24:52.703Z,6.64
2022-11-24T09:25:52.864Z,6.72
2022-11-24T09:26:52.995Z,6.72
2022-11-24T09:27:53.096Z,6.88
2022-11-24T09:28:53.205Z,6.88
2022-11-24T09:29:53.359Z,7.04
2022-11-24T09:30:53.509Z,6.88
2022-11-24T09:31:53.699Z,7.04
2022-11-24T09:32:53.804Z,7.12
2022-11-24T09:33:53.936Z,7.28
2022-11-24T09:34:54.060Z,7.12
2022-11-24T09:35:54.214Z,7.12
2022-11-24T09:36:54.332Z,7.12
2022-11-24T09:37:54.466Z,7.28
2022-11-24T09:38:54.614Z,7.28
2022-11-24T09:39:54.754Z,7.28
2022-11-24T09:40:54.868Z,7.28
2022-11-24T09:41:55.028Z,7.2
2022-11-24T09:42:55.184Z,7.28
2022-11-24T09:43:55.332Z,7.28
2022-11-24T09:44:55.430Z,7.44
2022-11-24T09:46:05.260Z,7.28
2022-11-24T09:46:55.796Z,7.44
2022-11-24T09:47:55.839Z,7.44
2022-11-24T09:48:55.993Z,7.6
2022-11-24T09:49:56.136Z,7.44
2022-11-24T09:50:56.281Z,7.44
2022-11-24T09:51:56.444Z,7.44
2022-11-24T09:52:56.589Z,7.44
2022-11-24T09:53:56.736Z,7.28
2022-11-24T09:54:56.890Z,7.2
2022-11-24T09:55:57.042Z,7.28
2022-11-24T09:56:57.190Z,7.28
2022-11-24T09:57:57.779Z,7.52
2022-11-24T09:58:57.875Z,7.6
2022-11-24T09:59:57.849Z,7.6
2022-11-24T10:00:58.579Z,7.68
2022-11-24T10:01:58.364Z,7.6
2022-11-24T10:02:58.081Z,7.28
2022-11-24T10:04:02.715Z,7.28
2022-11-24T10:04:58.793Z,7.28
2022-11-24T10:05:58.926Z,7.28
2022-11-24T10:06:59.041Z,7.6
2022-11-24T10:07:58.821Z,7.68
2022-11-24T10:08:58.909Z,7.52
2022-11-24T10:09:59.063Z,7.52
2022-11-24T10:10:59.226Z,7.52
2022-11-24T10:11:59.378Z,7.6
2022-11-24T10:12:59.516Z,7.68
2022-11-24T10:13:59.674Z,7.44
2022-11-24T10:14:59.834Z,7.6
2022-11-24T10:15:59.997Z,7.68
2022-11-24T10:17:00.115Z,7.6
2022-11-24T10:18:00.274Z,7.2
2022-11-24T10:19:00.420Z,7.44
2022-11-24T10:20:00.586Z,7.28
2022-11-24T10:21:00.683Z,7.28
2022-11-24T10:22:00.838Z,7.2
2022-11-24T10:23:00.984Z,7.2
2022-11-24T10:24:01.131Z,7.28
2022-11-24T10:25:01.290Z,7.28
2022-11-24T10:26:01.431Z,7.28
2022-11-24T10:27:01.584Z,7.2
2022-11-24T10:28:01.735Z,7.12
2022-11-24T10:29:01.887Z,7.28
2022-11-24T10:30:02.042Z,7.28
2022-11-24T10:31:02.264Z,7.2
2022-11-24T10:32:02.394Z,7.28
2022-11-24T10:33:02.542Z,7.12
2022-11-24T10:34:02.697Z,7.12
2022-11-24T10:35:02.856Z,7.12
2022-11-24T10:36:04.692Z,7.2
2022-11-24T10:37:03.151Z,7.12
2022-11-24T10:38:03.311Z,7.2
2022-11-24T10:39:03.453Z,7.2
2022-11-24T10:40:03.558Z,7.28
2022-11-24T10:41:03.705Z,7.28
2022-11-24T10:42:03.877Z,7.28
2022-11-24T10:43:04.018Z,7.44
2022-11-24T10:44:04.152Z,7.44
2022-11-24T10:45:04.276Z,7.28
2022-11-24T10:46:04.438Z,7.28
2022-11-24T10:47:04.503Z,7.28
2022-11-24T10:48:04.666Z,7.52
2022-11-24T10:49:04.824Z,7.6
2022-11-24T10:50:04.922Z,7.6
2022-11-24T10:51:05.069Z,7.68
2022-11-24T10:52:05.220Z,7.52
2022-11-24T10:53:05.379Z,7.52
2022-11-24T10:54:05.534Z,7.52
2022-11-24T10:55:05.680Z,7.68
2022-11-24T10:56:05.850Z,7.6
2022-11-24T10:57:05.989Z,7.52
2022-11-24T10:58:06.136Z,7.52
2022-11-24T10:59:06.269Z,7.52
2022-11-24T11:00:06.383Z,7.44
2022-11-24T11:01:06.593Z,7.6
2022-11-24T11:02:06.765Z,7.84
2022-11-24T11:03:06.924Z,8
2022-11-24T11:04:06.997Z,7.84
2022-11-24T11:05:07.100Z,7.92
2022-11-24T11:06:07.186Z,7.84
2022-11-24T11:07:07.368Z,7.92
2022-11-24T11:08:07.491Z,7.92
2022-11-24T11:09:07.600Z,7.92
2022-11-24T11:10:07.745Z,7.84
2022-11-24T11:11:07.909Z,7.92
2022-11-24T11:12:27.965Z,7.84
2022-11-24T11:13:08.584Z,7.92
2022-11-24T11:14:08.719Z,7.92
2022-11-24T11:15:08.653Z,8.24
2022-11-24T11:16:09.006Z,8.48
2022-11-24T11:17:08.742Z,8.32
2022-11-24T11:18:08.853Z,8.4
2022-11-24T11:19:33.177Z,8.32
2022-11-24T11:20:09.414Z,8.32
2022-11-24T11:21:09.263Z,8.24
2022-11-24T11:22:09.423Z,8.4
2022-11-24T11:23:09.575Z,8.32
2022-11-24T11:24:09.711Z,8.4
2022-11-24T11:25:09.867Z,8.639999
2022-11-24T11:26:10.018Z,8.639999
2022-11-24T11:27:10.176Z,8.639999
2022-11-24T11:28:13.736Z,8.4
2022-11-24T11:31:16.259Z,8.4
2022-11-24T11:34:18.368Z,8.8
2022-11-24T11:35:11.281Z,8.8
2022-11-24T11:36:11.550Z,8.48
2022-11-24T11:37:11.582Z,8.639999
2022-11-24T11:38:11.745Z,8.639999
2022-11-24T11:39:11.880Z,8.72
2022-11-24T11:40:13.101Z,8.639999
2022-11-24T11:41:12.193Z,8.48
2022-11-24T11:42:21.188Z,8.639999
2022-11-24T11:43:12.493Z,8.4
2022-11-24T11:44:12.642Z,8.4
2022-11-24T11:45:12.781Z,8.48
2022-11-24T11:46:13.083Z,8.72
2022-11-24T11:47:13.081Z,8.639999
2022-11-24T11:48:13.203Z,8.48
2022-11-24T11:49:13.346Z,8.48
2022-11-24T11:50:13.606Z,8.4
2022-11-24T11:51:23.093Z,8.4
2022-11-24T11:52:13.808Z,8.32
2022-11-24T11:53:13.959Z,8.24
2022-11-24T11:54:14.112Z,8.32
2022-11-24T11:55:14.260Z,8.32
2022-11-24T11:56:14.418Z,8.32
2022-11-24T11:57:14.565Z,8.08
2022-11-24T11:58:14.712Z,8.08
2022-11-24T11:59:14.812Z,8.24
2022-11-24T12:00:14.962Z,8.24
2022-11-24T12:01:15.136Z,8.08
2022-11-24T12:02:15.289Z,8.24
2022-11-24T12:03:15.443Z,8.32
2022-11-24T12:04:15.558Z,8.32
2022-11-24T12:05:15.626Z,8.32
2022-11-24T12:06:15.727Z,8.32
2022-11-24T12:07:15.907Z,8.4
2022-11-24T12:08:19.320Z,8.4
2022-11-24T12:09:20.903Z,8.32
2022-11-24T12:10:16.331Z,8.4
2022-11-24T12:11:16.481Z,8.32
2022-11-24T12:12:16.641Z,8.32
2022-11-24T12:13:16.787Z,8.32
2022-11-24T12:14:16.936Z,8.48
2022-11-24T12:15:17.091Z,8.72
2022-11-24T12:16:17.294Z,8.48
2022-11-24T12:17:17.377Z,8.48
2022-11-24T12:18:40.593Z,8.24
2022-11-24T12:19:17.704Z,8.24
2022-11-24T12:20:17.856Z,8.48
2022-11-24T12:21:21.493Z,8.639999
2022-11-24T12:22:18.147Z,8.48
2022-11-24T12:23:18.309Z,8.4
2022-11-24T12:24:18.504Z,8.48
2022-11-24T12:25:18.606Z,8.639999
2022-11-24T12:26:18.888Z,9.04
2022-11-24T12:27:22.701Z,9.04
2022-11-24T12:28:19.062Z,9.12
2022-11-24T12:29:19.208Z,9.12
2022-11-24T12:30:19.365Z,8.88
2022-11-24T12:31:19.538Z,9.04
2022-11-24T12:32:19.857Z,9.04
2022-11-24T12:33:19.727Z,8.88
2022-11-24T12:34:19.868Z,9.04
2022-11-24T12:35:20.144Z,9.12
2022-11-24T12:36:20.209Z,9.04
2022-11-24T12:37:20.374Z,9.2
2022-11-24T12:38:20.480Z,8.88
2022-11-24T12:39:20.647Z,9.04
2022-11-24T12:40:20.777Z,9.28
2022-11-24T12:41:40.193Z,9.12
2022-11-24T12:42:21.065Z,9.28
2022-11-24T12:43:21.238Z,9.12
2022-11-24T12:44:21.386Z,9.2
2022-11-24T12:45:21.504Z,9.2
2022-11-24T12:46:21.648Z,9.2
2022-11-24T12:47:22.119Z,9.28
2022-11-24T12:48:22.278Z,9.28
2022-11-24T12:49:22.437Z,9.36
2022-11-24T12:50:22.679Z,9.36
2022-11-24T12:51:22.912Z,9.28
2022-11-24T12:52:22.927Z,9.679999
2022-11-24T12:53:23.035Z,9.52
2022-11-24T12:54:22.863Z,9.599999
2022-11-24T12:55:22.933Z,9.599999
2022-11-24T12:56:23.093Z,9.599999
2022-11-24T12:57:23.242Z,9.599999
2022-11-24T12:58:23.341Z,9.599999
2022-11-24T12:59:23.506Z,9.52
2022-11-24T13:00:23.665Z,9.599999
2022-11-24T13:01:23.839Z,9.36
2022-11-24T13:02:24.102Z,9.599999
2022-11-24T13:03:24.071Z,9.599999
2022-11-24T13:04:24.213Z,9.679999
2022-11-24T13:05:24.362Z,9.84
2022-11-24T13:06:24.512Z,9.599999
2022-11-24T13:07:24.699Z,9.599999
2022-11-24T13:08:24.822Z,9.36
2022-11-24T13:09:24.985Z,9.52
2022-11-24T13:10:40.390Z,9.28
2022-11-24T13:11:25.257Z,9.52
2022-11-24T13:12:25.417Z,9.599999
2022-11-24T13:13:25.586Z,9.679999
2022-11-24T13:14:25.731Z,9.52
2022-11-24T13:15:44.973Z,9.52
2022-11-24T13:16:36.023Z,9.52
2022-11-24T13:17:33.680Z,9.28
2022-11-24T13:18:26.293Z,9.28
2022-11-24T13:19:26.393Z,9.2
2022-11-24T13:20:26.534Z,9.28
2022-11-24T13:21:26.643Z,9.12
2022-11-24T13:22:26.787Z,9.04
2022-11-24T13:23:26.947Z,9.12
2022-11-24T13:24:27.094Z,9.04
2022-11-24T13:25:27.683Z,9.12
2022-11-24T13:26:27.405Z,9.12
2022-11-24T13:27:27.538Z,9.12
2022-11-24T13:28:46.450Z,9.04
2022-11-24T13:29:27.833Z,8.88
2022-11-24T13:30:28.156Z,8.8